sensor_id;sensor_type;location;lat;lon;timestamp;P1;durP1;ratioP1;P2;durP2;ratioP2
31692;SDS011;37436;53.230;6.614;2023-04-07T00:02:01;33.65;;;14.70;;
31692;SDS011;37436;53.230;6.614;2023-04-07T00:04:28;29.25;;;13.98;;
31692;SDS011;37436;53.230;6.614;2023-04-07T00:06:54;27.73;;;13.95;;
31692;SDS011;37436;53.230;6.614;2023-04-07T00:09:20;25.73;;;12.93;;
31692;SDS011;37436;53.230;6.614;2023-04-07T00:11:47;23.58;;;12.20;;
31692;SDS011;37436;53.230;6.614;2023-04-07T00:14:13;27.15;;;14.38;;
31692;SDS011;37436;53.230;6.614;2023-04-07T00:17:03;28.38;;;13.60;;
31692;SDS011;37436;53.230;6.614;2023-04-07T00:19:28;32.05;;;15.38;;
31692;SDS011;37436;53.230;6.614;2023-04-07T00:21:57;29.48;;;15.18;;
31692;SDS011;37436;53.230;6.614;2023-04-07T00:24:24;32.45;;;15.73;;
31692;SDS011;37436;53.230;6.614;2023-04-07T00:26:50;29.73;;;15.18;;
31692;SDS011;37436;53.230;6.614;2023-04-07T00:29:17;27.92;;;14.90;;
31692;SDS011;37436;53.230;6.614;2023-04-07T00:31:43;34.47;;;15.13;;
31692;SDS011;37436;53.230;6.614;2023-04-07T00:34:09;31.52;;;15.60;;
31692;SDS011;37436;53.230;6.614;2023-04-07T00:36:38;27.83;;;14.70;;
31692;SDS011;37436;53.230;6.614;2023-04-07T00:39:05;31.92;;;15.43;;
31692;SDS011;37436;53.230;6.614;2023-04-07T00:41:32;27.20;;;14.63;;
31692;SDS011;37436;53.230;6.614;2023-04-07T00:43:59;28.65;;;14.57;;
31692;SDS011;37436;53.230;6.614;2023-04-07T00:46:29;26.80;;;14.05;;
31692;SDS011;37436;53.230;6.614;2023-04-07T00:48:55;26.77;;;14.70;;
31692;SDS011;37436;53.230;6.614;2023-04-07T00:51:21;28.52;;;14.65;;
31692;SDS011;37436;53.230;6.614;2023-04-07T00:53:48;34.13;;;15.40;;
31692;SDS011;37436;53.230;6.614;2023-04-07T00:56:19;36.90;;;16.98;;
31692;SDS011;37436;53.230;6.614;2023-04-07T00:58:48;32.42;;;16.55;;
31692;SDS011;37436;53.230;6.614;2023-04-07T01:01:15;33.97;;;16.65;;
31692;SDS011;37436;53.230;6.614;2023-04-07T01:04:01;32.47;;;16.83;;
31692;SDS011;37436;53.230;6.614;2023-04-07T01:06:47;30.25;;;14.95;;
31692;SDS011;37436;53.230;6.614;2023-04-07T01:09:17;31.23;;;15.60;;
31692;SDS011;37436;53.230;6.614;2023-04-07T01:11:49;34.97;;;16.08;;
31692;SDS011;37436;53.230;6.614;2023-04-07T01:14:17;34.92;;;14.93;;
31692;SDS011;37436;53.230;6.614;2023-04-07T01:16:48;32.22;;;16.85;;
31692;SDS011;37436;53.230;6.614;2023-04-07T01:19:36;33.33;;;15.90;;
31692;SDS011;37436;53.230;6.614;2023-04-07T01:22:05;31.48;;;16.25;;
31692;SDS011;37436;53.230;6.614;2023-04-07T01:27:29;31.88;;;15.70;;
31692;SDS011;37436;53.230;6.614;2023-04-07T01:29:59;29.48;;;15.60;;
31692;SDS011;37436;53.230;6.614;2023-04-07T01:32:30;37.03;;;17.15;;
31692;SDS011;37436;53.230;6.614;2023-04-07T01:34:57;33.58;;;17.67;;
31692;SDS011;37436;53.230;6.614;2023-04-07T01:37:25;35.35;;;18.02;;
31692;SDS011;37436;53.230;6.614;2023-04-07T01:39:52;34.78;;;16.38;;
31692;SDS011;37436;53.230;6.614;2023-04-07T01:42:21;35.63;;;16.58;;
31692;SDS011;37436;53.230;6.614;2023-04-07T01:44:47;35.88;;;17.38;;
31692;SDS011;37436;53.230;6.614;2023-04-07T01:47:15;32.50;;;16.40;;
31692;SDS011;37436;53.230;6.614;2023-04-07T01:49:47;30.25;;;16.50;;
31692;SDS011;37436;53.230;6.614;2023-04-07T01:52:15;38.03;;;18.50;;
31692;SDS011;37436;53.230;6.614;2023-04-07T01:54:44;34.20;;;16.88;;
31692;SDS011;37436;53.230;6.614;2023-04-07T01:57:10;36.08;;;17.27;;
31692;SDS011;37436;53.230;6.614;2023-04-07T01:59:37;34.90;;;16.60;;
31692;SDS011;37436;53.230;6.614;2023-04-07T02:02:03;37.03;;;17.92;;
31692;SDS011;37436;53.230;6.614;2023-04-07T02:07:00;36.90;;;18.80;;
31692;SDS011;37436;53.230;6.614;2023-04-07T02:09:29;39.38;;;18.42;;
31692;SDS011;37436;53.230;6.614;2023-04-07T02:11:57;35.03;;;17.30;;
31692;SDS011;37436;53.230;6.614;2023-04-07T02:14:30;34.10;;;17.17;;
31692;SDS011;37436;53.230;6.614;2023-04-07T02:17:09;35.13;;;18.45;;
31692;SDS011;37436;53.230;6.614;2023-04-07T02:19:36;36.17;;;17.10;;
31692;SDS011;37436;53.230;6.614;2023-04-07T02:22:03;35.58;;;16.58;;
31692;SDS011;37436;53.230;6.614;2023-04-07T02:24:30;40.45;;;18.80;;
31692;SDS011;37436;53.230;6.614;2023-04-07T02:26:58;37.42;;;18.13;;
31692;SDS011;37436;53.230;6.614;2023-04-07T02:29:26;38.40;;;18.15;;
31692;SDS011;37436;53.230;6.614;2023-04-07T02:31:58;36.38;;;17.70;;
31692;SDS011;37436;53.230;6.614;2023-04-07T02:34:25;46.33;;;19.48;;
31692;SDS011;37436;53.230;6.614;2023-04-07T02:36:51;33.42;;;18.30;;
31692;SDS011;37436;53.230;6.614;2023-04-07T02:39:17;37.47;;;17.00;;
31692;SDS011;37436;53.230;6.614;2023-04-07T02:41:43;38.28;;;16.88;;
31692;SDS011;37436;53.230;6.614;2023-04-07T02:44:09;43.75;;;17.70;;
31692;SDS011;37436;53.230;6.614;2023-04-07T02:46:35;37.85;;;17.60;;
31692;SDS011;37436;53.230;6.614;2023-04-07T02:49:01;41.45;;;18.52;;
31692;SDS011;37436;53.230;6.614;2023-04-07T02:51:28;41.20;;;18.42;;
31692;SDS011;37436;53.230;6.614;2023-04-07T02:53:55;40.83;;;19.02;;
31692;SDS011;37436;53.230;6.614;2023-04-07T02:56:21;40.58;;;18.77;;
31692;SDS011;37436;53.230;6.614;2023-04-07T02:58:47;39.45;;;18.13;;
31692;SDS011;37436;53.230;6.614;2023-04-07T03:01:20;35.70;;;17.35;;
31692;SDS011;37436;53.230;6.614;2023-04-07T03:03:46;37.95;;;18.20;;
31692;SDS011;37436;53.230;6.614;2023-04-07T03:06:13;40.13;;;19.10;;
31692;SDS011;37436;53.230;6.614;2023-04-07T03:08:39;38.47;;;18.80;;
31692;SDS011;37436;53.230;6.614;2023-04-07T03:11:06;36.28;;;17.25;;
31692;SDS011;37436;53.230;6.614;2023-04-07T03:13:32;34.53;;;16.27;;
31692;SDS011;37436;53.230;6.614;2023-04-07T03:15:59;34.13;;;17.27;;
31692;SDS011;37436;53.230;6.614;2023-04-07T03:18:34;38.65;;;17.05;;
31692;SDS011;37436;53.230;6.614;2023-04-07T03:21:00;35.15;;;17.25;;
31692;SDS011;37436;53.230;6.614;2023-04-07T03:23:27;35.15;;;16.00;;
31692;SDS011;37436;53.230;6.614;2023-04-07T03:25:53;31.58;;;17.08;;
31692;SDS011;37436;53.230;6.614;2023-04-07T03:28:24;31.90;;;15.68;;
31692;SDS011;37436;53.230;6.614;2023-04-07T03:30:51;29.15;;;13.82;;
31692;SDS011;37436;53.230;6.614;2023-04-07T03:33:17;31.63;;;15.52;;
31692;SDS011;37436;53.230;6.614;2023-04-07T03:35:43;38.90;;;16.60;;
31692;SDS011;37436;53.230;6.614;2023-04-07T03:38:09;32.72;;;16.77;;
31692;SDS011;37436;53.230;6.614;2023-04-07T03:40:36;35.83;;;15.75;;
31692;SDS011;37436;53.230;6.614;2023-04-07T03:43:06;32.63;;;15.25;;
31692;SDS011;37436;53.230;6.614;2023-04-07T03:45:36;33.92;;;15.80;;
31692;SDS011;37436;53.230;6.614;2023-04-07T03:48:03;38.38;;;15.68;;
31692;SDS011;37436;53.230;6.614;2023-04-07T03:50:29;33.65;;;15.77;;
31692;SDS011;37436;53.230;6.614;2023-04-07T03:52:55;33.38;;;15.63;;
31692;SDS011;37436;53.230;6.614;2023-04-07T03:55:24;35.60;;;16.90;;
31692;SDS011;37436;53.230;6.614;2023-04-07T03:58:05;36.13;;;16.38;;
31692;SDS011;37436;53.230;6.614;2023-04-07T04:00:32;36.38;;;17.20;;
31692;SDS011;37436;53.230;6.614;2023-04-07T04:02:58;36.42;;;15.90;;
31692;SDS011;37436;53.230;6.614;2023-04-07T04:05:34;37.05;;;16.75;;
31692;SDS011;37436;53.230;6.614;2023-04-07T04:08:00;33.03;;;16.05;;
31692;SDS011;37436;53.230;6.614;2023-04-07T04:10:29;30.05;;;15.10;;
31692;SDS011;37436;53.230;6.614;2023-04-07T04:12:55;35.58;;;16.02;;
31692;SDS011;37436;53.230;6.614;2023-04-07T04:15:25;28.52;;;15.63;;
31692;SDS011;37436;53.230;6.614;2023-04-07T04:17:51;29.77;;;14.10;;
31692;SDS011;37436;53.230;6.614;2023-04-07T04:20:17;33.30;;;14.02;;
31692;SDS011;37436;53.230;6.614;2023-04-07T04:22:46;31.48;;;15.70;;
31692;SDS011;37436;53.230;6.614;2023-04-07T04:25:12;27.13;;;15.02;;
31692;SDS011;37436;53.230;6.614;2023-04-07T04:27:38;31.92;;;15.77;;
31692;SDS011;37436;53.230;6.614;2023-04-07T04:30:04;33.80;;;15.70;;
31692;SDS011;37436;53.230;6.614;2023-04-07T04:32:36;35.40;;;15.65;;
31692;SDS011;37436;53.230;6.614;2023-04-07T04:35:03;31.05;;;15.95;;
31692;SDS011;37436;53.230;6.614;2023-04-07T04:37:30;31.15;;;14.80;;
31692;SDS011;37436;53.230;6.614;2023-04-07T04:39:56;28.00;;;13.93;;
31692;SDS011;37436;53.230;6.614;2023-04-07T04:42:22;30.85;;;14.57;;
31692;SDS011;37436;53.230;6.614;2023-04-07T04:44:57;28.13;;;13.60;;
31692;SDS011;37436;53.230;6.614;2023-04-07T04:47:23;29.85;;;14.48;;
31692;SDS011;37436;53.230;6.614;2023-04-07T04:49:50;21.55;;;11.13;;
31692;SDS011;37436;53.230;6.614;2023-04-07T04:52:19;26.98;;;13.00;;
31692;SDS011;37436;53.230;6.614;2023-04-07T04:54:45;29.65;;;15.02;;
31692;SDS011;37436;53.230;6.614;2023-04-07T04:57:13;28.73;;;15.30;;
31692;SDS011;37436;53.230;6.614;2023-04-07T04:59:40;26.33;;;14.50;;
31692;SDS011;37436;53.230;6.614;2023-04-07T05:02:06;27.77;;;14.27;;
31692;SDS011;37436;53.230;6.614;2023-04-07T05:04:32;30.67;;;15.13;;
31692;SDS011;37436;53.230;6.614;2023-04-07T05:06:59;29.10;;;14.50;;
31692;SDS011;37436;53.230;6.614;2023-04-07T05:09:25;33.33;;;15.18;;
31692;SDS011;37436;53.230;6.614;2023-04-07T05:11:58;29.55;;;14.45;;
31692;SDS011;37436;53.230;6.614;2023-04-07T05:14:24;24.40;;;11.38;;
31692;SDS011;37436;53.230;6.614;2023-04-07T05:16:50;29.10;;;15.05;;
31692;SDS011;37436;53.230;6.614;2023-04-07T05:19:21;28.25;;;13.88;;
31692;SDS011;37436;53.230;6.614;2023-04-07T05:34:42;39.45;;;19.45;;
31692;SDS011;37436;53.230;6.614;2023-04-07T05:37:14;34.47;;;16.85;;
31692;SDS011;37436;53.230;6.614;2023-04-07T05:39:40;30.42;;;15.18;;
31692;SDS011;37436;53.230;6.614;2023-04-07T05:42:07;31.98;;;17.05;;
31692;SDS011;37436;53.230;6.614;2023-04-07T05:44:33;30.20;;;15.48;;
31692;SDS011;37436;53.230;6.614;2023-04-07T05:46:59;32.63;;;16.10;;
31692;SDS011;37436;53.230;6.614;2023-04-07T05:49:26;29.98;;;15.25;;
31692;SDS011;37436;53.230;6.614;2023-04-07T05:51:52;26.45;;;14.13;;
31692;SDS011;37436;53.230;6.614;2023-04-07T05:54:20;31.48;;;16.05;;
31692;SDS011;37436;53.230;6.614;2023-04-07T05:56:46;34.38;;;15.95;;
31692;SDS011;37436;53.230;6.614;2023-04-07T05:59:12;30.92;;;15.05;;
31692;SDS011;37436;53.230;6.614;2023-04-07T06:01:38;26.92;;;14.30;;
31692;SDS011;37436;53.230;6.614;2023-04-07T06:04:09;31.75;;;13.95;;
31692;SDS011;37436;53.230;6.614;2023-04-07T06:06:55;30.88;;;14.00;;
31692;SDS011;37436;53.230;6.614;2023-04-07T06:09:23;32.70;;;16.02;;
31692;SDS011;37436;53.230;6.614;2023-04-07T06:11:50;29.60;;;15.35;;
31692;SDS011;37436;53.230;6.614;2023-04-07T06:14:16;29.65;;;15.25;;
31692;SDS011;37436;53.230;6.614;2023-04-07T06:16:44;29.38;;;16.00;;
31692;SDS011;37436;53.230;6.614;2023-04-07T06:19:10;32.47;;;16.30;;
31692;SDS011;37436;53.230;6.614;2023-04-07T06:21:36;33.22;;;15.57;;
31692;SDS011;37436;53.230;6.614;2023-04-07T06:24:03;30.73;;;14.65;;
31692;SDS011;37436;53.230;6.614;2023-04-07T06:26:30;31.85;;;15.82;;
31692;SDS011;37436;53.230;6.614;2023-04-07T06:28:57;32.35;;;16.38;;
31692;SDS011;37436;53.230;6.614;2023-04-07T06:31:32;32.55;;;15.40;;
31692;SDS011;37436;53.230;6.614;2023-04-07T06:34:06;32.17;;;16.05;;
31692;SDS011;37436;53.230;6.614;2023-04-07T06:36:40;30.27;;;15.63;;
31692;SDS011;37436;53.230;6.614;2023-04-07T06:39:06;29.52;;;14.90;;
31692;SDS011;37436;53.230;6.614;2023-04-07T06:41:36;36.92;;;15.65;;
31692;SDS011;37436;53.230;6.614;2023-04-07T06:44:05;32.65;;;16.40;;
31692;SDS011;37436;53.230;6.614;2023-04-07T06:46:33;26.15;;;14.77;;
31692;SDS011;37436;53.230;6.614;2023-04-07T06:49:00;27.98;;;14.15;;
31692;SDS011;37436;53.230;6.614;2023-04-07T06:51:26;30.90;;;15.60;;
31692;SDS011;37436;53.230;6.614;2023-04-07T06:53:52;29.60;;;15.07;;
31692;SDS011;37436;53.230;6.614;2023-04-07T06:56:18;28.98;;;14.60;;
31692;SDS011;37436;53.230;6.614;2023-04-07T06:58:45;28.33;;;14.90;;
31692;SDS011;37436;53.230;6.614;2023-04-07T07:01:12;31.70;;;15.65;;
31692;SDS011;37436;53.230;6.614;2023-04-07T07:03:38;30.83;;;15.52;;
31692;SDS011;37436;53.230;6.614;2023-04-07T07:06:05;31.55;;;14.40;;
31692;SDS011;37436;53.230;6.614;2023-04-07T07:08:31;30.88;;;14.70;;
31692;SDS011;37436;53.230;6.614;2023-04-07T07:11:00;29.77;;;15.55;;
31692;SDS011;37436;53.230;6.614;2023-04-07T07:13:31;31.25;;;15.10;;
31692;SDS011;37436;53.230;6.614;2023-04-07T07:15:57;31.05;;;14.35;;
31692;SDS011;37436;53.230;6.614;2023-04-07T07:18:26;26.73;;;13.05;;
31692;SDS011;37436;53.230;6.614;2023-04-07T07:21:14;25.25;;;13.45;;
31692;SDS011;37436;53.230;6.614;2023-04-07T07:40:17;24.60;;;12.90;;
31692;SDS011;37436;53.230;6.614;2023-04-07T07:42:53;22.83;;;12.07;;
31692;SDS011;37436;53.230;6.614;2023-04-07T07:45:19;20.50;;;11.57;;
31692;SDS011;37436;53.230;6.614;2023-04-07T07:47:55;22.65;;;11.73;;
31692;SDS011;37436;53.230;6.614;2023-04-07T07:50:24;22.45;;;12.35;;
31692;SDS011;37436;53.230;6.614;2023-04-07T07:53:08;21.20;;;11.68;;
31692;SDS011;37436;53.230;6.614;2023-04-07T07:55:37;20.15;;;11.88;;
31692;SDS011;37436;53.230;6.614;2023-04-07T07:58:03;22.90;;;12.70;;
31692;SDS011;37436;53.230;6.614;2023-04-07T08:00:30;22.35;;;11.65;;
31692;SDS011;37436;53.230;6.614;2023-04-07T08:02:56;26.98;;;12.55;;
31692;SDS011;37436;53.230;6.614;2023-04-07T08:05:22;21.38;;;11.63;;
31692;SDS011;37436;53.230;6.614;2023-04-07T08:07:58;22.67;;;11.45;;
31692;SDS011;37436;53.230;6.614;2023-04-07T08:12:51;25.33;;;13.10;;
31692;SDS011;37436;53.230;6.614;2023-04-07T08:15:17;19.80;;;12.13;;
31692;SDS011;37436;53.230;6.614;2023-04-07T08:17:49;24.38;;;12.70;;
31692;SDS011;37436;53.230;6.614;2023-04-07T08:20:15;22.77;;;13.02;;
31692;SDS011;37436;53.230;6.614;2023-04-07T08:22:41;29.85;;;16.02;;
31692;SDS011;37436;53.230;6.614;2023-04-07T08:25:11;28.92;;;15.25;;
31692;SDS011;37436;53.230;6.614;2023-04-07T08:27:37;32.65;;;17.15;;
31692;SDS011;37436;53.230;6.614;2023-04-07T08:30:04;33.78;;;18.60;;
31692;SDS011;37436;53.230;6.614;2023-04-07T08:32:39;38.13;;;18.70;;
31692;SDS011;37436;53.230;6.614;2023-04-07T08:35:19;35.35;;;19.33;;
31692;SDS011;37436;53.230;6.614;2023-04-07T08:37:48;35.75;;;18.50;;
31692;SDS011;37436;53.230;6.614;2023-04-07T08:40:14;35.92;;;19.38;;
31692;SDS011;37436;53.230;6.614;2023-04-07T08:42:42;36.42;;;19.55;;
31692;SDS011;37436;53.230;6.614;2023-04-07T08:45:09;30.75;;;17.25;;
31692;SDS011;37436;53.230;6.614;2023-04-07T08:47:36;32.78;;;17.88;;
31692;SDS011;37436;53.230;6.614;2023-04-07T08:50:32;30.50;;;16.92;;
31692;SDS011;37436;53.230;6.614;2023-04-07T08:53:34;33.88;;;17.10;;
31692;SDS011;37436;53.230;6.614;2023-04-07T08:56:23;29.10;;;16.80;;
31692;SDS011;37436;53.230;6.614;2023-04-07T08:59:01;28.45;;;15.20;;
31692;SDS011;37436;53.230;6.614;2023-04-07T09:01:27;31.65;;;17.02;;
31692;SDS011;37436;53.230;6.614;2023-04-07T09:03:57;29.77;;;17.35;;
31692;SDS011;37436;53.230;6.614;2023-04-07T09:06:26;32.47;;;16.23;;
31692;SDS011;37436;53.230;6.614;2023-04-07T09:08:56;29.33;;;16.17;;
31692;SDS011;37436;53.230;6.614;2023-04-07T09:11:22;31.85;;;17.23;;
31692;SDS011;37436;53.230;6.614;2023-04-07T09:13:49;27.88;;;15.32;;
31692;SDS011;37436;53.230;6.614;2023-04-07T09:16:18;28.38;;;14.73;;
31692;SDS011;37436;53.230;6.614;2023-04-07T09:18:55;24.85;;;14.20;;
31692;SDS011;37436;53.230;6.614;2023-04-07T09:21:21;32.97;;;13.80;;
31692;SDS011;37436;53.230;6.614;2023-04-07T09:23:57;23.58;;;13.43;;
31692;SDS011;37436;53.230;6.614;2023-04-07T09:29:35;24.90;;;12.52;;
31692;SDS011;37436;53.230;6.614;2023-04-07T09:32:01;24.85;;;13.23;;
31692;SDS011;37436;53.230;6.614;2023-04-07T09:37:20;17.08;;;10.13;;
31692;SDS011;37436;53.230;6.614;2023-04-07T09:39:48;21.10;;;11.80;;
31692;SDS011;37436;53.230;6.614;2023-04-07T09:45:33;24.58;;;12.05;;
31692;SDS011;37436;53.230;6.614;2023-04-07T09:48:34;22.52;;;12.00;;
31692;SDS011;37436;53.230;6.614;2023-04-07T09:51:07;19.77;;;10.70;;
31692;SDS011;37436;53.230;6.614;2023-04-07T09:53:52;20.10;;;10.85;;
31692;SDS011;37436;53.230;6.614;2023-04-07T09:56:21;21.83;;;11.85;;
31692;SDS011;37436;53.230;6.614;2023-04-07T09:58:51;15.02;;;9.77;;
31692;SDS011;37436;53.230;6.614;2023-04-07T10:01:25;14.30;;;9.20;;
31692;SDS011;37436;53.230;6.614;2023-04-07T10:04:05;15.30;;;9.13;;
31692;SDS011;37436;53.230;6.614;2023-04-07T10:06:44;22.30;;;9.27;;
31692;SDS011;37436;53.230;6.614;2023-04-07T10:14:36;18.67;;;9.95;;
31692;SDS011;37436;53.230;6.614;2023-04-07T10:17:02;20.60;;;9.25;;
31692;SDS011;37436;53.230;6.614;2023-04-07T10:19:33;17.38;;;10.85;;
31692;SDS011;37436;53.230;6.614;2023-04-07T10:22:19;18.88;;;9.50;;
31692;SDS011;37436;53.230;6.614;2023-04-07T10:27:18;17.17;;;10.50;;
31692;SDS011;37436;53.230;6.614;2023-04-07T10:29:47;18.88;;;10.30;;
31692;SDS011;37436;53.230;6.614;2023-04-07T10:32:14;16.80;;;10.65;;
31692;SDS011;37436;53.230;6.614;2023-04-07T10:37:14;15.60;;;9.90;;
31692;SDS011;37436;53.230;6.614;2023-04-07T10:39:47;17.63;;;9.88;;
31692;SDS011;37436;53.230;6.614;2023-04-07T10:50:23;15.43;;;8.95;;
31692;SDS011;37436;53.230;6.614;2023-04-07T10:55:47;14.40;;;8.75;;
31692;SDS011;37436;53.230;6.614;2023-04-07T11:03:38;20.55;;;9.63;;
31692;SDS011;37436;53.230;6.614;2023-04-07T11:06:13;19.23;;;9.20;;
31692;SDS011;37436;53.230;6.614;2023-04-07T11:08:44;14.05;;;8.50;;
31692;SDS011;37436;53.230;6.614;2023-04-07T11:11:13;11.88;;;7.85;;
31692;SDS011;37436;53.230;6.614;2023-04-07T11:13:46;13.57;;;8.77;;
31692;SDS011;37436;53.230;6.614;2023-04-07T11:16:12;19.50;;;9.52;;
31692;SDS011;37436;53.230;6.614;2023-04-07T11:18:41;13.18;;;8.60;;
31692;SDS011;37436;53.230;6.614;2023-04-07T11:21:11;13.35;;;8.05;;
31692;SDS011;37436;53.230;6.614;2023-04-07T11:23:41;10.80;;;6.68;;
31692;SDS011;37436;53.230;6.614;2023-04-07T11:26:13;11.52;;;7.13;;
31692;SDS011;37436;53.230;6.614;2023-04-07T11:28:55;12.27;;;7.07;;
31692;SDS011;37436;53.230;6.614;2023-04-07T11:31:38;11.07;;;6.38;;
31692;SDS011;37436;53.230;6.614;2023-04-07T11:34:04;16.48;;;7.45;;
31692;SDS011;37436;53.230;6.614;2023-04-07T11:39:17;11.93;;;7.88;;
31692;SDS011;37436;53.230;6.614;2023-04-07T11:41:51;11.45;;;7.25;;
31692;SDS011;37436;53.230;6.614;2023-04-07T11:44:22;12.45;;;7.70;;
31692;SDS011;37436;53.230;6.614;2023-04-07T11:47:00;13.32;;;7.30;;
31692;SDS011;37436;53.230;6.614;2023-04-07T11:49:49;13.07;;;6.85;;
31692;SDS011;37436;53.230;6.614;2023-04-07T11:52:18;11.18;;;7.05;;
31692;SDS011;37436;53.230;6.614;2023-04-07T11:54:45;9.95;;;6.13;;
31692;SDS011;37436;53.230;6.614;2023-04-07T11:57:29;13.70;;;7.63;;
31692;SDS011;37436;53.230;6.614;2023-04-07T12:03:07;11.63;;;6.70;;
31692;SDS011;37436;53.230;6.614;2023-04-07T12:05:43;14.30;;;7.30;;
31692;SDS011;37436;53.230;6.614;2023-04-07T12:08:11;12.43;;;7.82;;
31692;SDS011;37436;53.230;6.614;2023-04-07T12:10:38;13.50;;;7.95;;
31692;SDS011;37436;53.230;6.614;2023-04-07T12:13:05;11.52;;;7.28;;
31692;SDS011;37436;53.230;6.614;2023-04-07T12:15:41;12.60;;;7.82;;
31692;SDS011;37436;53.230;6.614;2023-04-07T12:18:08;11.18;;;6.88;;
31692;SDS011;37436;53.230;6.614;2023-04-07T12:20:40;11.15;;;7.10;;
31692;SDS011;37436;53.230;6.614;2023-04-07T12:23:17;12.38;;;8.45;;
31692;SDS011;37436;53.230;6.614;2023-04-07T12:25:55;13.20;;;8.18;;
31692;SDS011;37436;53.230;6.614;2023-04-07T12:28:36;12.05;;;6.90;;
31692;SDS011;37436;53.230;6.614;2023-04-07T12:31:13;11.80;;;7.70;;
31692;SDS011;37436;53.230;6.614;2023-04-07T12:33:50;10.77;;;6.97;;
31692;SDS011;37436;53.230;6.614;2023-04-07T12:36:16;12.67;;;8.63;;
31692;SDS011;37436;53.230;6.614;2023-04-07T12:38:45;11.27;;;7.22;;
31692;SDS011;37436;53.230;6.614;2023-04-07T12:41:22;13.95;;;7.78;;
31692;SDS011;37436;53.230;6.614;2023-04-07T12:43:48;11.63;;;7.70;;
31692;SDS011;37436;53.230;6.614;2023-04-07T12:46:19;15.68;;;8.13;;
31692;SDS011;37436;53.230;6.614;2023-04-07T12:48:48;14.02;;;7.93;;
31692;SDS011;37436;53.230;6.614;2023-04-07T12:51:21;13.40;;;7.97;;
31692;SDS011;37436;53.230;6.614;2023-04-07T12:53:54;10.93;;;7.35;;
31692;SDS011;37436;53.230;6.614;2023-04-07T12:56:20;11.63;;;7.47;;
31692;SDS011;37436;53.230;6.614;2023-04-07T12:58:47;11.38;;;7.20;;
31692;SDS011;37436;53.230;6.614;2023-04-07T13:01:13;13.02;;;7.70;;
31692;SDS011;37436;53.230;6.614;2023-04-07T13:03:40;9.57;;;7.05;;
31692;SDS011;37436;53.230;6.614;2023-04-07T13:06:25;15.00;;;8.02;;
31692;SDS011;37436;53.230;6.614;2023-04-07T13:08:51;12.52;;;7.38;;
31692;SDS011;37436;53.230;6.614;2023-04-07T13:14:13;10.55;;;7.65;;
31692;SDS011;37436;53.230;6.614;2023-04-07T13:16:57;10.77;;;7.35;;
31692;SDS011;37436;53.230;6.614;2023-04-07T13:20:01;11.00;;;7.95;;
31692;SDS011;37436;53.230;6.614;2023-04-07T13:29:07;11.02;;;6.63;;
31692;SDS011;37436;53.230;6.614;2023-04-07T13:34:22;13.18;;;8.15;;
31692;SDS011;37436;53.230;6.614;2023-04-07T13:43:51;12.20;;;7.53;;
31692;SDS011;37436;53.230;6.614;2023-04-07T13:53:22;11.90;;;7.82;;
31692;SDS011;37436;53.230;6.614;2023-04-07T14:14:55;11.68;;;7.63;;
31692;SDS011;37436;53.230;6.614;2023-04-07T14:39:30;12.32;;;8.35;;
31692;SDS011;37436;53.230;6.614;2023-04-07T14:42:08;11.40;;;7.85;;
31692;SDS011;37436;53.230;6.614;2023-04-07T14:44:34;12.27;;;7.75;;
31692;SDS011;37436;53.230;6.614;2023-04-07T14:47:21;12.20;;;7.03;;
31692;SDS011;37436;53.230;6.614;2023-04-07T14:49:52;10.70;;;7.60;;
31692;SDS011;37436;53.230;6.614;2023-04-07T14:52:47;12.98;;;8.48;;
31692;SDS011;37436;53.230;6.614;2023-04-07T15:02:12;11.20;;;8.27;;
31692;SDS011;37436;53.230;6.614;2023-04-07T15:08:19;9.88;;;7.57;;
31692;SDS011;37436;53.230;6.614;2023-04-07T15:11:09;11.50;;;7.93;;
31692;SDS011;37436;53.230;6.614;2023-04-07T15:17:07;11.93;;;9.60;;
31692;SDS011;37436;53.230;6.614;2023-04-07T15:19:38;10.95;;;8.23;;
31692;SDS011;37436;53.230;6.614;2023-04-07T15:22:14;13.75;;;8.20;;
31692;SDS011;37436;53.230;6.614;2023-04-07T15:24:40;13.90;;;9.57;;
31692;SDS011;37436;53.230;6.614;2023-04-07T15:27:06;15.75;;;9.63;;
31692;SDS011;37436;53.230;6.614;2023-04-07T15:29:34;12.68;;;8.68;;
31692;SDS011;37436;53.230;6.614;2023-04-07T15:32:01;11.45;;;8.65;;
31692;SDS011;37436;53.230;6.614;2023-04-07T15:34:52;14.88;;;10.40;;
31692;SDS011;37436;53.230;6.614;2023-04-07T15:37:29;14.65;;;10.02;;
31692;SDS011;37436;53.230;6.614;2023-04-07T15:40:17;13.45;;;9.43;;
31692;SDS011;37436;53.230;6.614;2023-04-07T15:46:18;16.20;;;10.98;;
31692;SDS011;37436;53.230;6.614;2023-04-07T15:51:40;19.23;;;11.85;;
31692;SDS011;37436;53.230;6.614;2023-04-07T15:54:09;19.85;;;12.45;;
31692;SDS011;37436;53.230;6.614;2023-04-07T16:05:29;17.45;;;10.73;;
31692;SDS011;37436;53.230;6.614;2023-04-07T16:17:29;20.50;;;11.93;;
31692;SDS011;37436;53.230;6.614;2023-04-07T16:23:42;20.15;;;10.35;;
31692;SDS011;37436;53.230;6.614;2023-04-07T16:41:48;17.02;;;9.90;;
31692;SDS011;37436;53.230;6.614;2023-04-07T16:44:15;18.25;;;10.10;;
31692;SDS011;37436;53.230;6.614;2023-04-07T16:46:45;14.38;;;8.90;;
31692;SDS011;37436;53.230;6.614;2023-04-07T16:49:12;16.92;;;9.70;;
31692;SDS011;37436;53.230;6.614;2023-04-07T16:51:38;17.23;;;10.68;;
31692;SDS011;37436;53.230;6.614;2023-04-07T16:54:04;17.35;;;9.80;;
31692;SDS011;37436;53.230;6.614;2023-04-07T16:56:38;20.58;;;11.20;;
31692;SDS011;37436;53.230;6.614;2023-04-07T16:59:04;20.75;;;9.38;;
31692;SDS011;37436;53.230;6.614;2023-04-07T17:01:32;15.35;;;9.93;;
31692;SDS011;37436;53.230;6.614;2023-04-07T17:04:05;17.55;;;9.73;;
31692;SDS011;37436;53.230;6.614;2023-04-07T17:06:31;12.75;;;8.65;;
31692;SDS011;37436;53.230;6.614;2023-04-07T17:08:57;23.48;;;9.80;;
31692;SDS011;37436;53.230;6.614;2023-04-07T17:11:24;14.27;;;8.73;;
31692;SDS011;37436;53.230;6.614;2023-04-07T17:13:50;17.52;;;9.52;;
31692;SDS011;37436;53.230;6.614;2023-04-07T17:16:19;17.65;;;8.80;;
31692;SDS011;37436;53.230;6.614;2023-04-07T17:18:45;16.50;;;8.15;;
31692;SDS011;37436;53.230;6.614;2023-04-07T17:21:12;13.68;;;9.02;;
31692;SDS011;37436;53.230;6.614;2023-04-07T17:23:43;15.20;;;8.27;;
31692;SDS011;37436;53.230;6.614;2023-04-07T17:26:11;17.13;;;7.60;;
31692;SDS011;37436;53.230;6.614;2023-04-07T17:28:38;15.73;;;8.75;;
31692;SDS011;37436;53.230;6.614;2023-04-07T17:31:04;13.70;;;8.13;;
31692;SDS011;37436;53.230;6.614;2023-04-07T17:33:30;14.52;;;8.75;;
31692;SDS011;37436;53.230;6.614;2023-04-07T17:36:01;17.02;;;8.95;;
31692;SDS011;37436;53.230;6.614;2023-04-07T17:38:27;16.45;;;9.13;;
31692;SDS011;37436;53.230;6.614;2023-04-07T17:40:57;18.17;;;9.70;;
31692;SDS011;37436;53.230;6.614;2023-04-07T17:43:23;18.13;;;8.93;;
31692;SDS011;37436;53.230;6.614;2023-04-07T17:45:50;17.50;;;8.98;;
31692;SDS011;37436;53.230;6.614;2023-04-07T17:48:16;16.52;;;9.40;;
31692;SDS011;37436;53.230;6.614;2023-04-07T17:50:42;17.38;;;9.13;;
31692;SDS011;37436;53.230;6.614;2023-04-07T17:53:13;15.82;;;9.32;;
31692;SDS011;37436;53.230;6.614;2023-04-07T17:55:39;14.75;;;8.77;;
31692;SDS011;37436;53.230;6.614;2023-04-07T17:58:08;17.08;;;8.35;;
31692;SDS011;37436;53.230;6.614;2023-04-07T18:00:34;15.30;;;8.57;;
31692;SDS011;37436;53.230;6.614;2023-04-07T18:03:02;15.25;;;8.88;;
31692;SDS011;37436;53.230;6.614;2023-04-07T18:05:34;17.55;;;8.38;;
31692;SDS011;37436;53.230;6.614;2023-04-07T18:10:37;17.92;;;8.43;;